Time;durP1;ratioP1;P1;durP2;ratioP2;P2;SDS_P1;SDS_P2;PMS_P1;PMS_P2;Temp;Humidity;BMP_temperature;BMP_pressure;BME280_temperature;BME280_humidity;BME280_pressure;Samples;Min_cycle;Max_cycle;Signal;HPM_P1;HPM_P2
2023/05/02 01:53:04;0.00;0.00;0.62;0.00;0.00;0.62;;;;;14.50;1.00;;;;;;2546611;55;1819;31
2023/05/02 07:40:03;611860.00;2.04;1054.70;76427.00;0.25;132.87;;;;;19.20;1.00;;;;;;2546159;55;1821;31
2023/05/02 08:46:57;895230.00;2.98;1547.74;0.00;0.00;0.62;;;;;19.00;1.00;;;;;;2269374;61;1938;-87
2023/05/02 09:53:32;2167031.00;7.22;3973.13;167631.00;0.56;290.19;;;;;19.20;1.00;;;;;;2364406;39;3686;-90
2023/05/02 11:19:01;560057.00;1.87;965.30;0.00;0.00;0.62;;;;;21.90;1.00;;;;;;2423512;40;2127;-87
2023/05/02 11:32:03;879797.00;2.93;1520.66;38705.00;0.13;67.65;;;;;21.10;1.00;;;;;;2269507;61;1397;-86
2023/05/02 11:34:44;413486.00;1.38;712.99;0.00;0.00;0.62;;;;;21.10;1.00;;;;;;2296793;40;3644;-88
2023/05/02 11:57:20;685352.00;2.28;1181.85;55328.00;0.18;96.40;;;;;20.70;1.00;;;;;;2281007;40;3532;-88
2023/05/02 12:09:53;3801391.00;12.67;8217.54;2060693.00;6.87;3749.70;;;;;21.40;1.00;;;;;;2269721;61;1388;-89
2023/05/02 12:14:52;3250388.00;10.83;6587.60;0.00;0.00;0.62;;;;;21.30;1.00;;;;;;2273614;61;1416;-89
2023/05/02 12:22:25;7507598.00;25.03;27873.76;3290314.00;10.97;6697.97;;;;;20.90;1.00;;;;;;2273435;61;1368;-89
2023/05/02 12:30:00;3580167.00;11.93;7534.61;6747.00;0.02;12.31;;;;;20.80;1.00;;;;;;976242;40;3477;-88
2023/05/02 12:32:30;3351661.00;11.17;6869.80;70439.00;0.23;122.52;;;;;21.00;1.00;;;;;;2271708;61;1636;-90
2023/05/02 12:34:57;3438641.00;11.46;7118.18;59127.00;0.20;102.97;;;;;20.80;1.00;;;;;;2268376;61;1787;-88
2023/05/02 12:37:30;5879031.00;19.60;17010.01;4621668.00;15.41;11131.50;;;;;21.10;1.00;;;;;;2292027;40;3762;-87
2023/05/02 12:39:57;4066427.00;13.55;9090.39;0.00;0.00;0.62;;;;;21.20;1.00;;;;;;2285921;55;3783;-88
2023/05/02 12:42:27;6167577.00;20.56;18643.12;462117.00;1.54;796.63;;;;;21.00;1.00;;;;;;2272569;61;1740;-89
2023/05/02 12:44:55;4852953.00;16.18;12074.39;503345.00;1.68;867.58;;;;;21.60;1.00;;;;;;2268403;61;1224;-88
2023/05/02 12:47:25;120797656.00;402.66;71406496.00;1151948.00;3.84;2003.58;;;;;21.50;1.00;;;;;;2318981;56;3798;-90
2023/05/02 12:49:53;5837024.00;19.46;16781.79;617412.00;2.06;1064.29;;;;;21.50;1.00;;;;;;2272439;61;1694;-87
2023/05/02 12:52:41;2876147.00;9.59;5605.98;26723.00;0.09;46.91;;;;;21.90;1.00;;;;;;2272416;61;1759;-87
2023/05/02 12:57:44;128437712.00;428.13;85845152.00;31619.00;0.11;55.39;;;;;22.40;1.00;;;;;;2290538;39;3525;-88
2023/05/02 13:02:46;3471482.00;11.57;7213.44;98941.00;0.33;171.74;;;;;22.80;1.00;;;;;;2281591;39;3490;-89
2023/05/02 13:05:17;122591808.00;408.64;74638776.00;6362.00;0.02;11.65;;;;;22.80;1.00;;;;;;2272304;61;1798;-87
2023/05/02 13:07:50;2730303.00;9.10;5247.60;84885.00;0.28;147.47;;;;;22.70;1.00;;;;;;2272421;61;2004;-88
2023/05/02 13:10:25;2445807.00;8.15;4583.51;60940.00;0.20;106.10;;;;;21.60;1.00;;;;;;2272488;61;1004;-88
2023/05/02 13:12:59;3491252.00;11.64;7271.18;308424.00;1.03;532.40;;;;;21.00;1.00;;;;;;2298148;39;3771;-86
2023/05/02 13:20:37;8340622.00;27.80;35159.20;3650484.00;12.17;7747.36;;;;;20.30;1.00;;;;;;2298103;40;3584;-86
2023/05/02 13:23:07;8684260.00;28.95;38551.64;5402978.00;18.01;14559.04;;;;;20.20;1.00;;;;;;2276648;55;3755;-86
2023/05/02 13:25:39;3874468.00;12.91;8452.09;1481371.00;4.94;2608.12;;;;;20.00;1.00;;;;;;2272596;61;1785;-87
2023/05/02 13:33:13;4252251.00;14.17;9740.20;23744.00;0.08;41.75;;;;;19.90;1.00;;;;;;2490009;40;2203;-85
2023/05/02 13:35:42;3126902.00;10.42;6253.34;237145.00;0.79;409.84;;;;;20.10;1.00;;;;;;2330842;39;3700;-89
2023/05/02 13:40:43;4125426.00;13.75;9293.23;2283942.00;7.61;4224.59;;;;;19.70;1.00;;;;;;2273818;61;1404;-87
2023/05/02 13:48:06;6449534.00;21.50;20353.36;1404667.00;4.68;2464.98;;;;;19.40;1.00;;;;;;2269893;61;1903;-86
2023/05/02 13:50:37;124257120.00;414.19;77724944.00;2888269.00;9.63;5636.35;;;;;19.10;1.00;;;;;;2268369;61;1067;-87
2023/05/02 13:55:51;130117136.00;433.72;89260272.00;125842128.00;419.47;80740336.00;;;;;19.50;1.00;;;;;;2450989;40;2148;-85
2023/05/02 13:58:23;128928816.00;429.76;86834640.00;56524.00;0.19;98.47;;;;;19.00;1.00;;;;;;2268160;61;1625;-86
2023/05/02 14:00:53;121898432.00;406.33;73378272.00;121690888.00;405.64;73003760.00;;;;;19.50;1.00;;;;;;2268154;61;1695;-84
2023/05/02 14:03:20;452594.00;1.51;780.24;34975.00;0.12;61.19;;;;;19.80;1.00;;;;;;2267970;61;1598;-85
2023/05/02 14:05:50;234438.00;0.78;405.18;0.00;0.00;0.62;;;;;20.10;1.00;;;;;;2268267;61;1699;-84
2023/05/02 14:08:24;278339.00;0.93;480.68;0.00;0.00;0.62;;;;;20.30;1.00;;;;;;2268237;61;1994;-86
2023/05/02 14:11:01;104110.00;0.35;180.67;0.00;0.00;0.62;;;;;19.90;1.00;;;;;;2268425;61;1165;-85
2023/05/02 14:13:29;354386.00;1.18;611.40;38491.00;0.13;67.28;;;;;19.70;1.00;;;;;;2267959;61;1666;-87
2023/05/02 14:26:12;151787.00;0.51;262.89;0.00;0.00;0.62;;;;;19.70;1.00;;;;;;2461612;40;2097;-85
2023/05/02 14:31:24;961099.00;3.20;1663.69;0.00;0.00;0.62;;;;;19.40;1.00;;;;;;2269740;61;1419;-87
2023/05/02 14:33:51;429260.00;1.43;740.11;150978.00;0.50;261.49;;;;;18.80;1.00;;;;;;2265728;61;1603;-89
2023/05/02 14:38:50;533415.00;1.78;919.38;91701.00;0.31;159.24;;;;;18.50;1.00;;;;;;2273912;61;1428;-87
2023/05/02 14:41:21;403724.00;1.35;696.21;91807.00;0.31;159.43;;;;;18.20;1.00;;;;;;2272216;61;959;-88
2023/05/02 14:43:49;378088.00;1.26;652.14;92150.00;0.31;160.02;;;;;18.00;1.00;;;;;;2291399;40;3761;-85
2023/05/02 14:46:17;432378.00;1.44;745.47;67773.00;0.23;117.91;;;;;18.10;1.00;;;;;;2272115;61;1703;-87
2023/05/02 14:48:44;359311.00;1.20;619.86;102764.00;0.34;178.34;;;;;18.40;1.00;;;;;;2272042;61;2009;-85
2023/05/02 14:51:19;233024.00;0.78;402.75;92216.00;0.31;160.13;;;;;18.70;1.00;;;;;;2271975;61;1462;-85
2023/05/02 14:53:48;452391.00;1.51;779.90;87487.00;0.29;151.97;;;;;18.80;1.00;;;;;;2272177;61;1717;-86
2023/05/02 14:56:17;510535.00;1.70;879.96;80297.00;0.27;139.55;;;;;19.10;1.00;;;;;;2272103;61;1611;-86
2023/05/02 14:58:53;915595.00;3.05;1583.53;163380.00;0.54;282.86;;;;;19.10;1.00;;;;;;2301594;40;3757;-86
2023/05/02 15:01:29;437750.00;1.46;754.71;88415.00;0.29;153.57;;;;;19.50;1.00;;;;;;2272264;61;1601;-85
2023/05/02 15:03:57;1082762.00;3.61;1879.62;119915.00;0.40;207.94;;;;;19.60;1.00;;;;;;2279082;55;3771;-85
2023/05/02 15:06:26;600524.00;2.00;1035.12;93767.00;0.31;162.81;;;;;20.30;1.00;;;;;;2272046;61;1598;-85
2023/05/02 15:08:55;518637.00;1.73;893.92;84664.00;0.28;147.09;;;;;19.90;1.00;;;;;;2272133;61;2010;-84
2023/05/02 15:11:28;393006.00;1.31;677.78;87185.00;0.29;151.45;;;;;19.50;1.00;;;;;;2272157;61;1582;-86
2023/05/02 15:16:33;1073876.00;3.58;1863.77;151398.00;0.50;262.22;;;;;19.20;1.00;;;;;;2445800;40;2099;-85
2023/05/02 15:19:00;121008592.00;403.36;71781568.00;376769.00;1.26;649.87;;;;;19.60;1.00;;;;;;2272053;61;1702;-86
2023/05/02 15:21:35;441217.00;1.47;760.68;84781.00;0.28;147.30;;;;;20.30;1.00;;;;;;2272149;61;990;-85
2023/05/02 15:24:05;740339.00;2.47;1277.26;133615.00;0.45;231.56;;;;;20.50;1.00;;;;;;2271977;61;1971;-87
2023/05/02 15:26:33;637351.00;2.12;1098.76;83344.00;0.28;144.81;;;;;20.70;1.00;;;;;;2272120;61;1699;-84
2023/05/02 15:29:03;974171.00;3.25;1686.78;202454.00;0.67;350.15;;;;;20.50;1.00;;;;;;2272031;61;1996;-87
2023/05/02 15:31:37;892725.00;2.98;1543.35;102465.00;0.34;177.83;;;;;20.30;1.00;;;;;;2272158;61;1639;-84
2023/05/02 15:34:09;1128467.00;3.76;1961.41;135431.00;0.45;234.69;;;;;20.50;1.00;;;;;;2272005;61;1526;-85
2023/05/02 15:36:42;1009359.00;3.36;1749.05;77878.00;0.26;135.37;;;;;20.80;1.00;;;;;;2272127;61;1611;-85
2023/05/02 15:39:12;990339.00;3.30;1715.37;73929.00;0.25;128.55;;;;;20.70;1.00;;;;;;2272009;61;1633;-86
2023/05/02 15:41:42;1450169.00;4.83;2549.70;131331.00;0.44;227.62;;;;;20.70;1.00;;;;;;2272004;61;1511;-83
2023/05/02 15:44:09;1667969.00;5.56;2963.36;252054.00;0.84;435.48;;;;;20.50;1.00;;;;;;2272081;61;1359;-85
2023/05/02 15:46:39;1194190.00;3.98;2079.72;204248.00;0.68;353.24;;;;;20.20;1.00;;;;;;2272184;61;1312;-87
2023/05/02 15:49:07;1127139.00;3.76;1959.03;109072.00;0.36;189.23;;;;;19.90;1.00;;;;;;2272028;61;2002;-86
2023/05/02 15:51:36;1090761.00;3.64;1893.91;194363.00;0.65;336.22;;;;;19.70;1.00;;;;;;2272060;61;1636;-87
2023/05/02 15:54:05;1403788.00;4.68;2463.35;221522.00;0.74;382.96;;;;;19.50;1.00;;;;;;2272050;61;1376;-85
2023/05/02 15:56:32;773284.00;2.58;1334.57;94805.00;0.32;164.60;;;;;19.30;1.00;;;;;;2271863;61;1599;-86
2023/05/02 15:59:03;663291.00;2.21;1143.64;84083.00;0.28;146.09;;;;;19.60;1.00;;;;;;2271980;61;1812;-88
2023/05/02 16:01:32;768705.00;2.56;1326.60;121653.00;0.41;210.93;;;;;19.50;1.00;;;;;;2271866;61;1478;-87
2023/05/02 16:04:11;772458.00;2.57;1333.13;82609.00;0.28;143.54;;;;;19.70;1.00;;;;;;2272061;61;1408;-86
2023/05/02 16:06:41;1091621.00;3.64;1895.45;182827.00;0.61;316.36;;;;;20.00;1.00;;;;;;2272069;61;1523;-87
2023/05/02 16:09:13;1129480.00;3.76;1963.22;117853.00;0.39;204.38;;;;;20.20;1.00;;;;;;2271771;61;1914;-87
2023/05/02 16:11:40;1116151.00;3.72;1939.33;61152.00;0.20;106.47;;;;;19.80;1.00;;;;;;2271948;61;1470;-86
2023/05/02 16:14:15;877069.00;2.92;1515.88;65652.00;0.22;114.25;;;;;19.20;1.00;;;;;;2271931;61;1372;-87
2023/05/02 16:16:51;739180.00;2.46;1275.25;78403.00;0.26;136.28;;;;;19.10;1.00;;;;;;2271938;61;1738;-88
2023/05/02 16:19:22;853241.00;2.84;1474.14;65489.00;0.22;113.96;;;;;19.20;1.00;;;;;;2271897;61;1550;-87
2023/05/02 16:21:52;879430.00;2.93;1520.02;89168.00;0.30;154.87;;;;;19.00;1.00;;;;;;2271893;61;1103;-88
2023/05/02 16:24:23;1176647.00;3.92;2048.05;92599.00;0.31;160.80;;;;;19.00;1.00;;;;;;2271836;61;1375;-86
2023/05/02 16:26:54;729012.00;2.43;1257.59;66923.00;0.22;116.44;;;;;18.80;1.00;;;;;;2271942;61;966;-85
2023/05/02 16:29:32;494465.00;1.65;852.29;0.00;0.00;0.62;;;;;18.80;1.00;;;;;;2271778;61;2007;-85
2023/05/02 16:34:51;245114.00;0.82;423.55;0.00;0.00;0.62;;;;;18.90;1.00;;;;;;2271698;61;1293;-88
2023/05/02 16:37:48;237770.00;0.79;410.92;30527.00;0.10;53.50;;;;;18.80;1.00;;;;;;2271796;61;1700;-87
2023/05/02 16:40:18;256587.00;0.86;443.28;0.00;0.00;0.62;;;;;18.40;1.00;;;;;;2271887;61;1656;-85
2023/05/02 16:42:45;122149.00;0.41;211.79;0.00;0.00;0.62;;;;;18.50;1.00;;;;;;2271813;61;1720;-83
2023/05/02 16:45:25;223466.00;0.74;386.31;0.00;0.00;0.62;;;;;18.20;1.00;;;;;;2271927;61;989;-87
2023/05/02 16:48:21;380899.00;1.27;656.97;134084.00;0.45;232.37;;;;;18.40;1.00;;;;;;2271861;61;1580;-86
2023/05/02 16:51:02;462081.00;1.54;796.56;96880.00;0.32;168.19;;;;;18.20;1.00;;;;;;2271665;61;1513;-85
2023/05/02 16:53:31;1110263.00;3.70;1928.79;59336.00;0.20;103.33;;;;;18.50;1.00;;;;;;2271797;61;1436;-86
2023/05/02 16:56:18;574072.00;1.91;989.47;98727.00;0.33;171.37;;;;;18.60;1.00;;;;;;2271866;61;1052;-86
2023/05/02 17:01:28;1590763.00;5.30;2815.10;0.00;0.00;0.62;;;;;18.70;1.00;;;;;;2273313;61;1428;-86
2023/05/02 17:03:58;400462.00;1.33;690.60;9168.00;0.03;16.51;;;;;18.60;1.00;;;;;;2271778;61;1516;-87
2023/05/02 17:06:35;204773.00;0.68;354.14;0.00;0.00;0.62;;;;;18.50;1.00;;;;;;2271810;61;1099;-85
2023/05/02 17:09:06;392075.00;1.31;676.18;14643.00;0.05;25.99;;;;;18.30;1.00;;;;;;2271630;61;1927;-85
2023/05/02 17:11:49;93702.00;0.31;162.70;0.00;0.00;0.62;;;;;18.40;1.00;;;;;;2271746;61;1605;-85
2023/05/02 17:14:16;110903.00;0.37;192.39;0.00;0.00;0.62;;;;;18.60;1.00;;;;;;2271670;61;1458;-85
2023/05/02 17:16:48;119449.00;0.40;207.13;0.00;0.00;0.62;;;;;18.80;1.00;;;;;;2271839;61;2261;-85
2023/05/02 17:19:17;54719.00;0.18;95.35;0.00;0.00;0.62;;;;;18.80;1.00;;;;;;2271667;61;1619;-85
2023/05/02 17:21:56;52087.00;0.17;90.80;0.00;0.00;0.62;;;;;18.60;1.00;;;;;;2272100;61;1731;-88
2023/05/02 17:24:24;303847.00;1.01;524.53;0.00;0.00;0.62;;;;;18.40;1.00;;;;;;2272323;61;1397;-85
2023/05/02 17:26:54;294359.00;0.98;508.22;0.00;0.00;0.62;;;;;18.30;1.00;;;;;;2268678;61;1253;-87
2023/05/02 17:29:21;280707.00;0.94;484.75;0.00;0.00;0.62;;;;;18.60;1.00;;;;;;2272200;61;2008;-84
2023/05/02 17:31:54;258437.00;0.86;446.46;0.00;0.00;0.62;;;;;18.60;1.00;;;;;;2272316;61;1085;-86
2023/05/02 17:34:29;511332.00;1.70;881.34;11155.00;0.04;19.95;;;;;18.60;1.00;;;;;;2272229;61;1645;-85
2023/05/02 17:37:11;118270.00;0.39;205.10;0.00;0.00;0.62;;;;;18.40;1.00;;;;;;2272156;61;1094;-85
2023/05/02 17:42:16;614356.00;2.05;1059.01;0.00;0.00;0.62;;;;;18.30;1.00;;;;;;2000098;59;2410;-85
2023/05/02 17:44:46;483764.00;1.61;833.88;0.00;0.00;0.62;;;;;18.30;1.00;;;;;;2272181;61;2375;-86
2023/05/02 17:47:13;182363.00;0.61;315.56;0.00;0.00;0.62;;;;;17.90;1.00;;;;;;2272205;61;1309;-84
2023/05/02 17:49:44;128827.00;0.43;223.31;0.00;0.00;0.62;;;;;18.00;1.00;;;;;;2272189;61;1911;-83
2023/05/02 17:52:13;143278.00;0.48;248.22;19196.00;0.06;33.88;;;;;18.00;1.00;;;;;;2271855;61;1474;-84
2023/05/02 17:54:40;119402080.00;398.01;68957896.00;16254.00;0.05;28.78;;;;;18.30;1.00;;;;;;2271949;61;1360;-83
2023/05/02 17:57:11;222906.00;0.74;385.34;0.00;0.00;0.62;;;;;18.30;1.00;;;;;;2271696;61;1376;-83
2023/05/02 17:59:42;138957.00;0.46;240.77;0.00;0.00;0.62;;;;;18.30;1.00;;;;;;2271983;61;1576;-84
2023/05/02 18:02:14;177174.00;0.59;306.62;0.00;0.00;0.62;;;;;18.10;1.00;;;;;;2272152;61;1359;-85
2023/05/02 18:04:50;833018.00;2.78;1438.77;98715.00;0.33;171.35;;;;;18.00;1.00;;;;;;2271586;61;1514;-83
2023/05/02 18:07:28;254901.00;0.85;440.38;0.00;0.00;0.62;;;;;18.50;1.00;;;;;;2271264;61;1538;-86
2023/05/02 18:12:46;808490.00;2.69;1395.93;0.00;0.00;0.62;;;;;18.30;1.00;;;;;;2294749;40;3653;-84
2023/05/02 18:15:58;132849480.00;442.83;95008216.00;0.00;0.00;0.62;;;;;18.40;1.00;;;;;;2270887;61;1180;-83
2023/05/02 18:18:35;388718.00;1.30;670.41;85328.00;0.28;148.24;;;;;18.40;1.00;;;;;;2271195;61;1849;-84
2023/05/02 18:21:15;500515.00;1.67;862.71;88679.00;0.30;154.03;;;;;18.30;1.00;;;;;;2271450;61;1684;-84
2023/05/02 18:23:47;290543.00;0.97;501.66;88516.00;0.30;153.75;;;;;18.30;1.00;;;;;;2271435;61;1782;-83
2023/05/02 18:26:19;467968.00;1.56;806.69;87553.00;0.29;152.08;;;;;18.20;1.00;;;;;;2271699;61;1806;-83
2023/05/02 18:28:52;553063.00;1.84;953.24;103739.00;0.35;180.03;;;;;18.40;1.00;;;;;;2271597;61;1995;-83
2023/05/02 18:31:26;629457.00;2.10;1085.11;83954.00;0.28;145.87;;;;;18.50;1.00;;;;;;2271721;61;1593;-83
2023/05/02 18:34:09;80000.00;0.27;139.04;0.00;0.00;0.62;;;;;18.80;1.00;;;;;;2271815;61;1337;-84
2023/05/02 18:36:44;152859.00;0.51;264.73;0.00;0.00;0.62;;;;;18.70;1.00;;;;;;2271476;61;1442;-83
2023/05/02 18:39:28;159758.00;0.53;276.62;0.00;0.00;0.62;;;;;18.90;1.00;;;;;;2271953;61;821;-82
2023/05/02 18:42:07;438547.00;1.46;756.08;82454.00;0.27;143.28;;;;;18.70;1.00;;;;;;2271848;61;1792;-83
2023/05/02 18:58:37;2561005.00;8.54;4847.09;1117542.00;3.73;1941.82;;;;;18.20;1.00;;;;;;1519179;40;75522252;-83
2023/05/02 19:01:20;1190975.00;3.97;2073.91;177014.00;0.59;306.35;;;;;18.00;1.00;;;;;;2555929;56;1118;-83
2023/05/02 19:03:50;2102084.00;7.01;3836.09;206762.00;0.69;357.56;;;;;17.50;1.00;;;;;;2560431;56;1747;-83
2023/05/02 19:06:24;2280328.00;7.60;4216.72;541331.00;1.80;933.02;;;;;17.20;1.00;;;;;;2562902;56;2419;-84
2023/05/02 19:08:54;1395874.00;4.65;2448.67;183269.00;0.61;317.12;;;;;16.90;1.00;;;;;;2562702;56;1669;-84
2023/05/02 19:14:10;1376614.00;4.59;2413.02;81177.00;0.27;141.07;;;;;16.50;1.00;;;;;;2560834;56;1881;-84
2023/05/02 19:16:51;1622675.00;5.41;2876.15;110149.00;0.37;191.09;;;;;16.70;1.00;;;;;;2563026;56;1750;-83
2023/05/02 19:19:39;895538.00;2.99;1548.28;98314.00;0.33;170.66;;;;;16.80;1.00;;;;;;2561025;56;1773;-83
2023/05/02 19:25:08;104935.00;0.35;182.09;0.00;0.00;0.62;;;;;16.90;1.00;;;;;;2559885;56;1064;-84
2023/05/02 19:27:39;251415.00;0.84;434.38;0.00;0.00;0.62;;;;;16.90;1.00;;;;;;2561048;56;1502;-83
2023/05/02 19:30:14;256243.00;0.85;442.69;0.00;0.00;0.62;;;;;16.80;1.00;;;;;;2561149;56;1347;-83
2023/05/02 19:33:02;187685.00;0.63;324.72;73017.00;0.24;126.97;;;;;16.70;1.00;;;;;;2560703;56;1431;-84
2023/05/02 19:35:35;176858.00;0.59;306.08;0.00;0.00;0.62;;;;;16.50;1.00;;;;;;2561171;56;1564;-82
2023/05/02 19:43:23;115125.00;0.38;199.67;0.00;0.00;0.62;;;;;16.90;1.00;;;;;;2555941;56;1645;-83
2023/05/02 19:45:55;211892.00;0.71;366.39;0.00;0.00;0.62;;;;;17.20;1.00;;;;;;2557994;56;1894;-84
2023/05/02 19:53:31;207029.00;0.69;358.02;0.00;0.00;0.62;;;;;16.60;1.00;;;;;;2550811;56;1300;-85
2023/05/02 19:56:02;473258.00;1.58;815.80;47469.00;0.16;82.81;;;;;16.60;1.00;;;;;;2553409;56;1674;-84
2023/05/02 19:58:29;273286.00;0.91;471.99;0.00;0.00;0.62;;;;;16.90;1.00;;;;;;2549351;40;3610;-85
2023/05/02 20:01:18;335456.00;1.12;578.86;0.00;0.00;0.62;;;;;17.30;1.00;;;;;;2557616;56;1211;-84
2023/05/02 20:03:46;582294.00;1.94;1003.66;0.00;0.00;0.62;;;;;17.50;1.00;;;;;;2557165;56;1636;-84
2023/05/02 20:08:42;469777.00;1.57;809.81;102980.00;0.34;178.72;;;;;17.60;1.00;;;;;;2555230;56;924;-84
2023/05/02 20:13:43;3326992.00;11.09;6800.37;1598703.00;5.33;2830.26;;;;;17.80;1.00;;;;;;2549958;56;1327;-83
2023/05/02 20:16:12;921371.00;3.07;1593.69;0.00;0.00;0.62;;;;;17.80;1.00;;;;;;2552234;56;1093;-81
2023/05/02 20:18:45;972948.00;3.24;1684.62;18574.00;0.06;32.80;;;;;17.60;1.00;;;;;;2552029;56;1610;-86
2023/05/02 20:21:13;1564851.00;5.22;2765.75;57064.00;0.19;99.40;;;;;17.60;1.00;;;;;;2552268;56;1380;-84
2023/05/02 20:23:43;1939493.00;6.46;3500.81;206116.00;0.69;356.45;;;;;17.70;1.00;;;;;;2552218;56;1338;-87
2023/05/02 20:26:16;1981404.00;6.60;3586.21;249542.00;0.83;431.16;;;;;17.70;1.00;;;;;;2549796;56;1966;-83
2023/05/02 20:28:47;1804440.00;6.01;3230.20;166742.00;0.56;288.65;;;;;17.90;1.00;;;;;;2552222;56;1200;-83
2023/05/02 20:31:14;5722672.00;19.08;16172.47;3087305.00;10.29;6148.37;;;;;17.90;1.00;;;;;;2552090;56;1692;-82
2023/05/02 20:33:52;3549043.00;11.83;7441.70;1317140.00;4.39;2303.51;;;;;17.90;1.00;;;;;;2552333;56;1244;-83
2023/05/02 20:36:21;127760.00;0.43;221.47;0.00;0.00;0.62;;;;;17.70;1.00;;;;;;2552248;56;1740;-85
2023/05/02 20:38:52;589245.00;1.96;1015.65;0.00;0.00;0.62;;;;;17.60;1.00;;;;;;2552187;56;1635;-83
2023/05/02 20:41:23;1524843.00;5.08;2689.95;90975.00;0.30;157.99;;;;;17.60;1.00;;;;;;2552126;56;1726;-83
2023/05/02 20:43:53;1459538.00;4.87;2567.21;357851.00;1.19;617.36;;;;;17.40;1.00;;;;;;2549900;56;1528;-83
2023/05/02 20:46:23;5150695.00;17.17;13375.42;1851712.00;6.17;3324.15;;;;;17.50;1.00;;;;;;2549840;56;1965;-84
2023/05/02 20:48:52;594681.00;1.98;1025.04;92975.00;0.31;161.44;;;;;17.50;1.00;;;;;;2552191;56;1732;-83
2023/05/02 20:51:36;364049.00;1.21;628.01;90257.00;0.30;156.75;;;;;17.70;1.00;;;;;;2552007;56;1274;-85
2023/05/02 20:54:07;134073320.00;446.91;97660880.00;89144.00;0.30;154.83;;;;;17.70;1.00;;;;;;2552252;56;1391;-85
2023/05/02 20:56:34;119153.00;0.40;206.62;0.00;0.00;0.62;;;;;17.90;1.00;;;;;;2552120;56;1221;-83
2023/05/02 21:14:51;106518.00;0.36;184.82;0.00;0.00;0.62;;;;;18.00;1.00;;;;;;2545241;40;1706;-81
2023/05/02 21:17:20;227520.00;0.76;393.28;0.00;0.00;0.62;;;;;18.10;1.00;;;;;;2557197;56;1561;-80
2023/05/02 21:19:49;343611.00;1.15;592.88;53408.00;0.18;93.08;;;;;17.60;1.00;;;;;;2557431;56;1563;-81
2023/05/02 21:22:17;335735.00;1.12;579.34;0.00;0.00;0.62;;;;;17.70;1.00;;;;;;2557312;56;1173;-83
2023/05/02 21:27:32;123749.00;0.41;214.55;0.00;0.00;0.62;;;;;17.70;1.00;;;;;;2555022;56;1940;-84
2023/05/02 21:30:03;377372.00;1.26;650.91;0.00;0.00;0.62;;;;;17.80;1.00;;;;;;2552142;40;3529;-86
2023/05/02 21:32:30;1127165.00;3.76;1959.07;77324.00;0.26;134.41;;;;;17.90;1.00;;;;;;2549999;56;1305;-86
2023/05/02 21:34:57;422227.00;1.41;728.02;101775.00;0.34;176.64;;;;;17.90;1.00;;;;;;2562679;41;3648;-82
2023/05/02 21:37:38;165348.00;0.55;286.25;0.00;0.00;0.62;;;;;17.70;1.00;;;;;;2567190;56;1711;-82
2023/05/02 21:40:11;226385.00;0.75;391.33;0.00;0.00;0.62;;;;;17.60;1.00;;;;;;2567296;56;1266;-84
2023/05/02 21:42:42;148816.00;0.50;257.77;0.00;0.00;0.62;;;;;17.70;1.00;;;;;;2567026;56;1718;-84
2023/05/02 21:45:18;1008880.00;3.36;1748.21;36740.00;0.12;64.25;;;;;17.60;1.00;;;;;;2560770;56;1547;-84
2023/05/02 21:47:46;1077207.00;3.59;1869.71;16145.00;0.05;28.59;;;;;17.40;1.00;;;;;;2562906;56;2063;-90
2023/05/02 21:50:20;1544785.00;5.15;2727.68;4070.00;0.01;7.67;;;;;17.40;1.00;;;;;;2565138;56;1596;-83
2023/05/02 21:52:50;1397273.00;4.66;2451.27;8402.00;0.03;15.18;;;;;17.00;1.00;;;;;;2567493;56;1729;-82
2023/05/02 21:55:19;198850.00;0.66;343.94;0.00;0.00;0.62;;;;;16.80;1.00;;;;;;2567523;56;1071;-83
2023/05/02 21:57:48;280541.00;0.94;484.47;0.00;0.00;0.62;;;;;16.60;1.00;;;;;;2567379;56;1143;-82
2023/05/02 22:00:26;384365.00;1.28;662.93;0.00;0.00;0.62;;;;;16.80;1.00;;;;;;2567325;56;1593;-81
2023/05/02 22:02:56;159917.00;0.53;276.90;0.00;0.00;0.62;;;;;17.10;1.00;;;;;;2567512;56;1620;-82
2023/05/02 22:05:33;367189.00;1.22;633.41;30989.00;0.10;54.29;;;;;16.90;1.00;;;;;;2567393;56;1638;-82
2023/05/02 22:08:07;524592.00;1.75;904.17;0.00;0.00;0.62;;;;;16.90;1.00;;;;;;2567134;56;1958;-83
2023/05/02 22:10:38;185960.00;0.62;321.75;0.00;0.00;0.62;;;;;17.00;1.00;;;;;;2565139;56;1641;-83
2023/05/02 22:13:11;283288.00;0.94;489.19;733.00;0.00;1.89;;;;;17.10;1.00;;;;;;2567497;56;1676;-82
2023/05/02 22:15:51;56469.00;0.19;98.37;0.00;0.00;0.62;;;;;16.90;1.00;;;;;;2565308;56;1179;-83
2023/05/02 22:21:00;310312.00;1.03;535.65;0.00;0.00;0.62;;;;;16.70;1.00;;;;;;2561538;40;3540;-85
2023/05/02 22:23:33;88956.00;0.30;154.50;0.00;0.00;0.62;;;;;16.90;1.00;;;;;;2567157;56;1695;-84
2023/05/02 22:26:13;114863.00;0.38;199.22;0.00;0.00;0.62;;;;;16.90;1.00;;;;;;2567256;56;1910;-83
2023/05/02 22:28:44;27813.00;0.09;48.80;0.00;0.00;0.62;;;;;16.80;1.00;;;;;;2560636;56;1275;-84
2023/05/02 22:31:28;247018.00;0.82;426.82;0.00;0.00;0.62;;;;;16.70;1.00;;;;;;2565681;40;3522;-86
2023/05/02 22:34:04;3481672.00;11.61;7243.16;1469725.00;4.90;2586.28;;;;;16.10;1.00;;;;;;2567419;56;1606;-83
2023/05/02 22:42:13;2735198.00;9.12;5259.42;1326137.00;4.42;2320.02;;;;;15.90;1.00;;;;;;2560113;56;668;-84
2023/05/02 22:44:45;4368680.00;14.56;10164.05;1511750.00;5.04;2665.25;;;;;16.20;1.00;;;;;;2562363;56;1724;-83
2023/05/02 22:47:21;1369433.00;4.56;2399.75;235388.00;0.78;406.82;;;;;16.00;1.00;;;;;;2562280;56;1968;-84
2023/05/02 22:49:55;4583906.00;15.28;10982.94;1742260.00;5.81;3107.83;;;;;15.90;1.00;;;;;;2562452;56;1765;-83
2023/05/02 22:52:36;473414.00;1.58;816.06;0.00;0.00;0.62;;;;;16.00;1.00;;;;;;2562354;56;1731;-83
2023/05/02 22:55:08;2367114.00;7.89;4407.40;1154407.00;3.85;2008.00;;;;;15.90;1.00;;;;;;2562239;40;3672;-85
2023/05/02 22:57:35;2324071.00;7.75;4312.37;806750.00;2.69;1392.90;;;;;16.10;1.00;;;;;;2567419;56;1601;-84
2023/05/02 23:00:11;4472685.00;14.91;10553.93;1153581.00;3.85;2006.52;;;;;16.10;1.00;;;;;;2560392;40;3660;-84
2023/05/02 23:02:42;3791875.00;12.64;8187.34;394500.00;1.32;680.35;;;;;16.20;1.00;;;;;;2567538;56;1747;-85
2023/05/02 23:05:09;125759072.00;419.20;80580424.00;56915.00;0.19;99.14;;;;;16.10;1.00;;;;;;2565272;56;1181;-85
2023/05/02 23:12:43;1986630.00;6.62;3596.91;0.00;0.00;0.62;;;;;15.90;1.00;;;;;;2559858;56;1315;-89
2023/05/02 23:15:13;123511072.00;411.70;76332056.00;1244437.00;4.15;2170.77;;;;;15.70;1.00;;;;;;2544067;40;3679;-84
2023/05/02 23:20:44;1764871.00;5.88;3152.18;398308.00;1.33;686.90;;;;;15.60;1.00;;;;;;2560657;56;3543;-88
2023/05/02 23:23:17;1091951.00;3.64;1896.04;0.00;0.00;0.62;;;;;15.50;1.00;;;;;;2565434;56;1449;-82
2023/05/02 23:28:37;3187950.00;10.63;6417.26;1844325.00;6.15;3309.42;;;;;15.60;1.00;;;;;;2565120;56;1911;-83
2023/05/02 23:31:07;5066456.00;16.89;12997.04;2665065.00;8.88;5091.35;;;;;15.50;1.00;;;;;;2565256;56;1094;-82
2023/05/02 23:33:41;170964.00;0.57;295.93;0.00;0.00;0.62;;;;;15.50;1.00;;;;;;2560832;56;1505;-84
2023/05/02 23:36:20;322894.00;1.08;557.27;0.00;0.00;0.62;;;;;15.50;1.00;;;;;;2547278;40;3815;-90
2023/05/02 23:41:19;344181.00;1.15;593.86;87474.00;0.29;151.95;;;;;15.10;1.00;;;;;;2560635;56;1058;-86
2023/05/02 23:46:28;320473.00;1.07;553.11;89950.00;0.30;156.22;;;;;15.40;1.00;;;;;;2547018;40;2085;-87
2023/05/02 23:59:15;1563973.00;5.21;2764.08;57558.00;0.19;100.26;;;;;15.20;1.00;;;;;;2564937;41;1751;-88
